Logs for Joe Jurecka, Lubbock, TX, USA [DM93am]
Paging Controls
Date UTC KHz ID Location S/P ITU Region GSQ LSB USB Sec. Fmt. Power KM Miles
2019-11-25 0630 362 SC Sherbrooke QC CAN na FN45cl 25 2886 1793
2019-11-25 0630 362 SUR Fitzgerald GA USA na EM81io 25 1760 1093
2019-11-25 0600 350 LF 'Flufy' Lufkin TX USA na EM21of 719 447
2019-11-25 0600 359 LYZ 'Willis' Bainbridge GA USA na EM70rx 1660 1031
2019-11-24 1100 350 CBG Cambridge MN USA na EN35in 1529 950
2019-11-24 1100 353 GVB 'Bogalusa' George R Carr Memorial Airfield LA USA na EM50bv 1173 729
2019-11-24 0700 353 PG Portage MB CAN na EN09vu 25 1842 1144
2019-11-24 0700 353 LI 'Lasky' Little Rock AR USA na EM34uq 400 899 559
2019-11-24 0700 353 DI 'Noson' Dickinson ND USA na DN86pq 25 1465 910
2019-11-24 0700 352 VM 'Meana', Mena Intermountain Municipal AR USA na EM24xm 25 738 458
2019-11-24 0700 350 NY Enderby BC CAN na DO00mp 500 2353 1462
2019-11-24 0700 350 RG 'Gally' Oklahoma City OK USA na EM15eh 400 444 276
2019-11-24 0700 351 AE 'Dudle' Albuquerque NM USA na DM65pf 475 295
2019-11-24 0700 351 MSQ Culpeper VA USA na FM18bk 25 2228 1384
2019-11-24 0700 353 AB 'Tomhi' Abilene TX USA na EM02dh 249 155
2019-11-24 0700 353 IN 'Raize' International Falls MN USA na EN38il 100 1812 1126
2019-11-24 0700 353 QG Saint Clair Beach (Windsor) ON CAN na EN82nh 25 1932 1200
2019-11-24 0700 355 YWP Webequie ON CAN na EO62hx 100 2454 1525
2019-11-24 0700 356 AQP Appleton MN USA na EN15xf 1396 868
2019-11-24 0700 356 AY St Anthony NL CAN na GO11wj 25 4163 2586
2019-11-24 0700 356 GR 'Famis' Green Bay WI USA na EN54vk 1694 1053
2019-11-24 0700 356 ODX Ord NE USA na EN01mo 25 937 582
2019-11-24 0700 356 PI 'Tungg' Peoria IL USA na EN50eo 40 1346 836
2019-11-24 0700 356 SJ 'Woole' San Angelo TX USA na DM91rg 283 176
2019-11-24 0700 356 ZF Yellowknife NT CAN na DP22sj 1000 3329 2068
2019-11-24 0700 356 ZXE Barnes (Saskatoon) SK CAN na DO62rd 39 2103 1307
2019-11-24 0700 359 GGF Grant NE USA na DN90du 816 507
2019-11-24 0700 359 GYG Grayling MI USA na EN74or 25 1928 1198
2019-11-24 0700 359 LXL Little Falls MN USA na EN25tw 25 1523 946
2019-11-24 0700 359 SDR Snyder TX USA na DM92mq 25 131 82
2019-11-24 0700 359 YAZ Tofino BC CAN na CN79db 2611 1622
2019-11-24 0700 359 YQZ Quesnel BC CAN na CO82sx 500 2706 1682
2019-11-24 0700 360 PN Port-Menier / Ile Anticosti QC CAN na FN79tu 500 3557 2210
2019-11-24 0700 360 SW 'Roadd' Warroad MN USA na EN28ju 25 1794 1115
2019-11-24 0700 361 HB 'Himun' Burlington NC USA na FM05ex 2054 1276
2019-11-24 0700 362 6T Foremost AB CAN na DN49gl 41 1939 1205
2019-11-24 0700 362 AK Akron OH USA na EN91hb 1998 1241
2019-11-24 0700 362 MT Manitowac WI USA na EN64de 1706 1060
2019-11-24 0700 362 RPX Round Up MT USA na DN56rl 25 1544 960
2019-11-24 0700 362 SB Sudbury ON CAN na EN96mp 400 2294 1425
2019-11-24 0700 362 TC 'Tuske' Tuscaloosa AL USA na EM63dd 1323 822
2019-11-24 0700 363 RNB 'Rainbow' Millville NJ USA na FM29kk 50 2477 1539
2019-11-24 0700 365 AA 'Kenie' Fargo MN USA na EN17oa 100 1563 971
2019-11-24 0700 365 FKV 'Flowery Branch' Gainesville GA USA na EM84be 25 1669 1037
2019-11-24 0700 365 FT 'Mufin' Fort Worth TX USA na EM12hv 25 432 268
2019-11-24 0700 365 HQG Hugoton KS USA na DM97hd 25 406 253
2019-11-24 0700 365 JN 'Balll' Muncie IN USA na EN70ie 1654 1028
2019-11-24 0700 365 PAL Palma EQA sa FI07cx 1000 4583 2848
2019-11-24 0700 365 SYZ Shelbyville IL USA na EM59nj 25 1338 831
2019-11-24 0700 366 EOK Keokuk IA USA na EN40gl 25 1210 752
2019-11-24 0700 366 EZM Eastman GA USA na EM82kd 25 1763 1096
2019-11-24 0700 366 YMW Maniwaki QC CAN na FN26ae 500 2610 1621
2019-11-24 0700 367 FVX Farmville VA USA na FM07si 2165 1345
2019-11-24 0700 368 AN 'Alamo' San Antonio TX USA na EL09ro 400 542 337
2019-11-24 0700 368 EU 'Murey' Murray KY USA na EM56ur 25 1292 802
2019-11-24 0700 368 PNM Princeton MN USA na EN35en 25 1515 942
2019-11-24 0700 368 ROQ Ruston LA USA na EM32qo 25 875 544
2019-11-24 0700 368 SX Skookum (Cranbrook) BC CAN na DN29cw 500 2148 1335
2019-11-24 0700 368 VIQ Neillsville WI USA na EN44rn 25 1571 976
2019-11-24 0700 368 VX Dafoe SK CAN na DO71ru 80 2049 1273
2019-11-24 0700 368 ZP Sandspit BC CAN na CO43ce 3213 1996
2019-11-24 0700 368 ZYZ Toronto (The Queensway) ON CAN na FN03fo 25 2238 1390
2019-11-24 0700 369 ZDX Coolidge Saint Johns ATG ca FK97cd 700 4392 2729
2019-11-22 0800 350 CP 'Acore' Cahokia / St Louis IL USA na EM48xm 25 1206 749
2019-02-04 0509 224 MO Moosonee ON CAN na EO91qg 400 2619 1627
2019-02-04 0507 284 QD The Pas MB CAN na DO93lx 500 2275 1414
2019-02-04 0506 515 PN 'Ponca' Ponca City OK USA na EM16kt 25 572 355
2019-02-04 0503 428 POH Pocahontas IA USA na EN22qr 25 1207 750
2019-02-04 0501 426 IZS Montezuma GA USA na EM72xi 25 1675 1041
2019-02-04 0500 421 VLY 'Melisa' Melissa TX USA na EM13qg 25 496 308
2019-02-04 0459 420 PK Olathe KS USA na EM28ps 25 874 543
2019-02-04 0458 420 FQ 'Montz' Fairmont MN USA na EN23tp 25 1303 810
2019-02-04 0457 417 IY 'Chukk' Charles City IA USA na EN33pd 25 1338 831
2019-02-04 0456 414 MSD Mansfield LA USA na EM32cb 25 780 485
2019-02-04 0455 414 GRN Gordon NE USA na DN82vt 1033 642
2019-02-04 0451 351 AE 'Dudle' Albuquerque NM USA na DM65pf 475 295
2019-02-04 0447 290 YYF Penticton BC CAN na DN09el 500 2293 1425
2019-02-04 0445 293 FBY Fairbury NE USA na EN10ke 50 856 532
2019-02-04 0440 207 YNE Norway House MB CAN na EO13bx 1000 2297 1427
2019-02-04 0438 209 ITR 'Kit Carson' Burlington CO USA na DM89uf 25 635 395
2019-02-04 0434 212 LIU Littlefield TX USA na DM83tw 25 60 37
2019-02-04 0433 214 CHX Choix (Sinaloa) MEX ca DL56ur 970 602
2019-02-04 0428 224 DN Dauphin MB CAN na DO91xc 25 1961 1218
2019-02-04 0419 224 BH 'Mc Den' Birmingham AL USA na EM63nm 400 1397 868
2019-02-04 0417 230 BNZ Abbeville LA USA na EL39wx 25 1009 627
2019-02-04 0412 239 HKF 'Hook Field' Middletown OH USA na EM79sl 25 1695 1053
2019-02-04 0406 245 YZE Gore Bay ON CAN na EN85qw 400 2143 1332
2019-02-04 0405 245 ARM Wharton TX USA na EL19wg 25 727 452
2019-02-04 0404 248 FRT 'Fairmont' Spartanburg SC USA na EM94av 400 1842 1145
2019-02-04 0401 251 SV 'Cozey' Silver City NM USA na DM52xp 575 357
2019-02-04 0355 251 AM 'Pande' Amarillo TX USA na DM95cd 400 181 113
2019-02-04 0355 255 BS 'Creed' Austin TX USA na EM10dc 553 343
2019-02-04 0353 255 SW 'Blaki' Stillwater OK USA na EM16kf 50 534 332
2019-02-04 0349 260 MTH Marathon FL USA na EL94kr 100 2241 1392
2019-02-04 0340 266 PYX Perryton TX USA na DM96pj 25 339 211
2019-02-04 0336 272 LD 'Lubbi' Lubbock TX USA na DM93dp 25 27 17
2019-02-04 0335 275 SWW Sweetwater TX USA na DM92sl 25 182 113
2019-02-04 0334 278 AUR 'Sulfy' Sulphur LA USA na EM30ge 25 884 549
2019-02-04 0332 278 CEP 'Capitan' Ruidoso NM USA na DM73hl 25 317 197
2019-02-04 0326 284 BT 'Rundi' Baton Rouge LA USA na EM40jn 1064 661
2019-02-04 0325 287 ZWG 'Stoney' Medicine Rock (Winnipeg) MB CAN na EN19jx 17 1871 1162
2019-02-04 0318 293 TOR Torrington WY USA na DN72wb 25 968 602
2019-02-04 0310 305 RO 'Topan' Roswell NM USA na DM73si 400 233 145
2019-02-04 0308 308 UTS Huntsville TX USA na EM20er 28 672 418
2019-02-04 0307 309 GPI Guapi CLM sa FJ12bn 500 4255 2644
2019-02-04 0301 320 TY Tyler / Indoo TX USA na EM22gj 100 619 385
2019-02-04 0259 326 PKZ 'Pickens' Pensacola FL USA na EM60jk 400 1431 889
2019-02-04 0258 326 MA 'Farly' Midland TX USA na DM81ux 400 174 108
2019-02-04 0255 329 BQP Bastrop LA USA na EM42bs 25 942 585
2019-02-04 0254 329 HMA Hondo TX USA na EL09ji 25 532 330
2019-02-04 0253 329 YHN Hornepayne ON CAN na EN79qf 500 2256 1402
2019-02-04 0252 329 CH 'Ashly' Charleston SC USA na EM92wx 400 2027 1259
2019-02-04 0250 329 PMV Plattsmouth NE USA na EN20bw 25 984 611
2019-02-04 0245 335 BV 'Almnd' Batesville AR USA na EM45cq 25 960 597
2019-02-04 0244 335 YLD Chapleau ON CAN na EN87hs 100 2217 1378
2019-02-04 0238 335 DR 'Kotti' Del Rio TX USA na DL99mk 464 288
2019-02-04 0237 338 HR 'Sebas' Harlingen TX USA na EL16eh 25 903 561
2019-02-04 0232 338 RYN 'Ryan' Tucson AZ USA na DM42kd 400 870 540
2019-02-04 0231 341 CQN 'Daisy' Chattanooga TN USA na EM75kd 50 1554 966
2019-02-04 0230 410 TEST UNID XUN xx
2019-02-04 0226 340 YY Mont Joli QC CAN na FN58un 500 3243 2015
2019-02-04 0224 341 YYU Kapuskasing ON CAN na EN89rl 500 2386 1483
2019-02-04 0223 341 OIN Oberlin KS USA na DM99rt 25 711 442
2019-02-04 0222 341 DNI Denison TX USA na EM13pt 25 487 302
2019-02-04 0216 344 CGQ 'Powell' Corsicana TX USA na EM12sb 539 335
2019-02-04 0216 344 TKH 'Tallulah' Vicksburg LA USA na EM42lf 1029 639
2019-02-04 0215 346 YXL Sioux Lookout ON CAN na EO40bc 1000 2020 1255
2019-02-04 0213 347 AFK Nebraska City NE USA na EN20bo 954 593
2019-02-04 0207 349 GW 'Teock' Greenwood MS USA na EM43wo 25 1096 681
2019-02-04 0206 350 NY Enderby BC CAN na DO00mp 500 2353 1462
2019-02-04 0204 350 RG 'Gally' Oklahoma City OK USA na EM15eh 400 444 276
2019-02-04 0203 335 CV 'Hisan' Clovis NM USA na DM84ji 148 92
2019-02-04 0143 332 CZX Crosbyton TX USA na DM93jo 70 44
2019-02-04 0143 335 DR 'Kotti' Del Rio TX USA na DL99mk 464 288
2019-02-04 0142 332 FIS 'Fish Hook' Key West FL USA na EL94cn 400 2193 1363
2019-02-04 0142 332 QT Thunder Bay ON CAN na EN58gi 1000 1949 1211
2019-02-04 0138 290 QR Regina SK CAN na DO70ri 100 1883 1170
2019-02-03 0448 250 FO Flin Flon MB CAN na DO94dq 1600 2353 1462
2019-02-03 0443 515 PN 'Ponca' Ponca City OK USA na EM16kt 25 572 355
2019-02-03 0436 382 SP 'Huskk' Springfield IL USA na EM59cs 25 1287 800
2019-02-03 0431 391 DDP San Juan / Dorado / Luiz Munoz Marin Intl PR PTR ca FK68tl 2000 3903 2425
2019-02-03 0430 393 BZ 'Fossi' Clinton OK USA na EM05jk 25 330 205
2019-02-03 0430 391 GXD Nacogdoches TX USA na EM21pp 25 710 441
2019-02-03 0428 260 MTH Marathon FL USA na EL94kr 100 2241 1392
2019-02-03 0424 224 BH 'Mc Den' Birmingham AL USA na EM63nm 400 1397 868
2019-02-03 0423 198 DIW Dixon NC USA na FM14gn 2000 2254 1401
2019-02-03 0422 201 IP Mobile AZ USA na DM33tc 25 969 602
2019-02-03 0421 209 ITR 'Kit Carson' Burlington CO USA na DM89uf 25 635 395
2019-02-03 0421 212 LIU Littlefield TX USA na DM83tw 25 60 37
2019-02-03 0419 350 DF Deer Lake NL CAN na GN19ge 1000 4029 2503
2019-02-03 0417 350 RG 'Gally' Oklahoma City OK USA na EM15eh 400 444 276
2019-02-03 0417 351 YKQ Waskaganish QC CAN na FO01pl 500 2737 1700
2019-02-03 0416 353 IN 'Raize' International Falls MN USA na EN38il 100 1812 1126
2019-02-03 0416 353 LI 'Lasky' Little Rock AR USA na EM34uq 400 899 559
2019-02-03 0416 352 VM 'Meana', Mena Intermountain Municipal AR USA na EM24xm 25 738 458
2019-02-03 0415 353 PG Portage MB CAN na EN09vu 25 1842 1144
2019-02-03 0414 356 PI 'Tungg' Peoria IL USA na EN50eo 40 1346 836
2019-02-03 0413 356 PTT Pratt KS USA na EM07pr 25 552 343
2019-02-03 0411 356 ODX Ord NE USA na EN01mo 25 937 582
2019-02-03 0410 359 GGF Grant NE USA na DN90du 816 507
2019-02-03 0410 359 SDR Snyder TX USA na DM92mq 25 131 82
2019-02-03 0408 365 AA 'Kenie' Fargo MN USA na EN17oa 100 1563 971
2019-02-03 0408 362 RPX Round Up MT USA na DN56rl 25 1544 960
2019-02-03 0407 366 YMW Maniwaki QC CAN na FN26ae 500 2610 1621
2019-02-03 0406 365 HQG Hugoton KS USA na DM97hd 25 406 253
2019-02-03 0405 368 AN 'Alamo' San Antonio TX USA na EL09ro 400 542 337
2019-02-03 0359 374 HY 'Nette' Hays KS USA na EM08js 634 394
2019-02-03 0358 366 YMW Maniwaki QC CAN na FN26ae 500 2610 1621
2019-02-03 0357 376 YAG Fort Frances ON CAN na EN38fq 40 1825 1134
2019-02-03 0354 382 SP 'Huskk' Springfield IL USA na EM59cs 25 1287 800
2019-02-03 0352 379 OW 'Tonna' Owatonna MN USA na EN34kb 25 1398 869
2019-02-03 0351 416 LB 'Panbe' North Platte NE USA na DN91rb 50 848 527
2019-02-03 0350 415 CBC West End (Cayman Brac) CYM ca FK09bq 600 2670 1659
2019-02-03 0349 376 ZIN Matthew Town / Great Inagua Island BAH ca FL30dx 400 3106 1930
2019-02-03 0348 380 OEL Oakley KS USA na DM99oc 25 629 391
2019-02-03 0347 383 LB 'Panck' Liberal KS USA na DM96mx 395 245
2019-02-03 0347 379 RUE Russellville AR USA na EM35kg 25 833 518
2019-02-03 0346 380 GC 'Deryk' Gillette WY USA na DN74fg 25 1234 767
2019-02-03 0345 380 BBD Brady TX USA na EM01ie 25 361 224
2019-02-03 0342 378 RJ Roberval QC CAN na FN38un 500 2968 1844
2019-02-03 0341 379 DL 'Pykla' Duluth MN USA na EN36tu 1688 1049
2019-02-03 0340 379 BRA 'Broad River' Asheville NC USA na EM85sg 100 1796 1116
2019-02-03 0339 397 CIR Cairo IL USA na EM57jb 25 1221 759
2019-02-03 0339 377 EHA Elkhart KS USA na DM97ba 50 389 242
2019-02-03 0337 400 ROB 'Robinson' Waco TX USA na EM11lm 512 318
2019-02-03 0336 400 FN 'Colln' Fort Collins / Loveland CO USA na DN70mi 25 805 500
2019-02-03 0334 400 AHQ Wahoo NE USA na EN11qf 977 607
2019-02-03 0334 402 CV Carlz Carlsbad NM USA na DM72tg 265 165
2019-02-03 0334 404 HU 'Saltt' Hutchinson KS USA na EM18ac 25 624 388
2019-02-03 0332 407 OOC 'Campi' Natchitoches LA USA na EM31lp 25 861 535
2019-02-03 0329 407 CHD Chandler AZ USA na DM43cg 25 913 567
2019-02-03 0328 406 YLJ Meadow Lake SK CAN na DO54qd 15 2352 1461
2019-02-03 0327 407 HRU Herington KS USA na EM18oq 25 738 459
2019-02-03 0326 414 SU 'Salix' Sioux City IA USA na EN12uh 40 1096 681
2019-02-03 0325 413 YHD Dryden ON CAN na EN39nu 250 1963 1219
2019-02-03 0324 414 ATS Artesia NM USA na DM72su 25 244 152
2019-02-03 0324 420 FQ 'Montz' Fairmont MN USA na EN23tp 25 1303 810
2019-02-03 0323 420 PK Olathe KS USA na EM28ps 25 874 543
2019-02-03 0303 410 GG 'Veels' Longview TX USA na EM22ok 679 422
2019-02-03 0029 408 JDM 'Wheatfield' Colby KS USA na DM99lm 25 672 418
2019-01-20 0204 349 GW 'Teock' Greenwood MS USA na EM43wo 25 1096 681
2019-01-20 0203 352 VM 'Meana', Mena Intermountain Municipal AR USA na EM24xm 25 738 458
2019-01-17 1559 349 GW 'Teock' Greenwood MS USA na EM43wo 25 1096 681
2019-01-17 0850 353 QG Saint Clair Beach (Windsor) ON CAN na EN82nh 25 1932 1200
2019-01-17 0715 353 LLD Lanai HI HWA oc BL10ms 2000 5557 3453
2019-01-17 0708 350 DF Deer Lake NL CAN na GN19ge 1000 4029 2503
2019-01-17 0707 353 LI 'Lasky' Little Rock AR USA na EM34uq 400 899 559
2019-01-17 0701 353 PG Portage MB CAN na EN09vu 25 1842 1144
2019-01-17 0701 351 YKQ Waskaganish QC CAN na FO01pl 500 2737 1700
2019-01-17 0700 413 YHD Dryden ON CAN na EN39nu 250 1963 1219
2019-01-17 0651 352 VM 'Meana', Mena Intermountain Municipal AR USA na EM24xm 25 738 458
2019-01-17 0640 401 YPO Peawanuck ON CAN na EO74gx 125 2708 1683
2019-01-16 1209 400 AHQ Wahoo NE USA na EN11qf 977 607
2019-01-16 0534 353 PG Portage MB CAN na EN09vu 25 1842 1144
2019-01-16 0533 382 YPL Pickle Lake ON CAN na EO41vk 500 2206 1371
2019-01-16 0531 340 YY Mont Joli QC CAN na FN58un 500 3243 2015
2019-01-16 0527 332 FIS 'Fish Hook' Key West FL USA na EL94cn 400 2193 1363
2019-01-16 0527 338 RYN 'Ryan' Tucson AZ USA na DM42kd 400 870 540
2019-01-16 0524 399 ZHD 'Thunder' Dryden ON CAN na EN39qt 25 1966 1222
2019-01-16 0523 400 QQ Comox BC CAN na CN79ms 2610 1621
2019-01-16 0523 401 YPO Peawanuck ON CAN na EO74gx 125 2708 1683
2019-01-16 0522 413 YHD Dryden ON CAN na EN39nu 250 1963 1219
2019-01-16 0514 421 VLY 'Melisa' Melissa TX USA na EM13qg 25 496 308
2019-01-16 0513 428 POH Pocahontas IA USA na EN22qr 25 1207 750
2018-12-17 0230 366 YMW Maniwaki QC CAN na FN26ae 500 2610 1621
2018-12-13 0800 198 DIW Dixon NC USA na FM14gn 2000 2254 1401
2018-12-13 0759 209 ITR 'Kit Carson' Burlington CO USA na DM89uf 25 635 395
2018-12-13 0759 206 QI Yarmouth NS CAN na FN63wt 500 3284 2040
2018-12-13 0758 212 BY Beechy SK CAN na DO60gu 25 1978 1229
2018-12-13 0758 218 RL Red Lake ON CAN na EO31cb 1000 2059 1280
2018-12-13 0757 224 MO Moosonee ON CAN na EO91qg 400 2619 1627
2018-12-13 0755 239 OJ High Level AB CAN na DO18kn 350 3004 1866
2018-12-13 0754 242 EL 'Valtr' El Paso TX USA na DM61uu 400 446 277
2018-12-13 0754 245 YZE Gore Bay ON CAN na EN85qw 400 2143 1332
2018-12-13 0753 250 FO Flin Flon MB CAN na DO94dq 1600 2353 1462
2018-12-13 0753 248 UL Montreal QC CAN na FN35bl 1000 2731 1697
2018-12-13 0748 290 QR Regina SK CAN na DO70ri 100 1883 1170
2018-12-13 0748 299 TV Turner Valley AB CAN na DO20ts 200 2167 1346
2018-12-13 0746 335 YLD Chapleau ON CAN na EN87hs 100 2217 1378
2018-12-13 0745 329 YHN Hornepayne ON CAN na EN79qf 500 2256 1402
2018-12-13 0744 332 FIS 'Fish Hook' Key West FL USA na EL94cn 400 2193 1363
2018-11-30 0009 305 YQ Churchill / Eastern Creek MB CAN na EO38as 500 2869 1783
2018-11-27 0405 305 YQ Churchill / Eastern Creek MB CAN na EO38as 500 2869 1783
2018-11-27 0403 415 CBC West End (Cayman Brac) CYM ca FK09bq 600 2670 1659
2018-11-27 0403 391 GXD Nacogdoches TX USA na EM21pp 25 710 441
2018-11-27 0402 392 PNA 'Wenz' Pinedale WY USA na DN52ct 25 1238 769
2018-11-27 0401 371 GW Jarpik Kuujjuarapik QC CAN na FO15cg 500 3055 1898
2018-11-27 0401 376 YAG Fort Frances ON CAN na EN38fq 40 1825 1134
2018-11-27 0401 382 YPL Pickle Lake ON CAN na EO41vk 500 2206 1371
2018-11-27 0400 379 OW 'Tonna' Owatonna MN USA na EN34kb 25 1398 869
2018-11-27 0359 377 EHA Elkhart KS USA na DM97ba 50 389 242
2018-11-27 0352 380 GC 'Deryk' Gillette WY USA na DN74fg 25 1234 767
2018-11-27 0348 280 QX Gander NL CAN na GN28px 1000 4224 2625
2018-11-27 0251 359 YQZ Quesnel BC CAN na CO82sx 500 2706 1682
2018-11-27 0203 350 NY Enderby BC CAN na DO00mp 500 2353 1462
2018-11-27 0202 356 ZF Yellowknife NT CAN na DP22sj 1000 3329 2068
2018-11-27 0136 356 ODX Ord NE USA na EN01mo 25 937 582
2018-11-27 0058 378 RJ Roberval QC CAN na FN38un 500 2968 1844
2018-11-26 0150 212 BY Beechy SK CAN na DO60gu 25 1978 1229
2018-11-26 0149 209 IB Atikokan ON CAN na EN48ft 250 1906 1184
2018-11-26 0147 360 PN Port-Menier / Ile Anticosti QC CAN na FN79tu 500 3557 2210
2018-11-26 0146 359 YQZ Quesnel BC CAN na CO82sx 500 2706 1682
2018-11-26 0136 323 KR Squaw Schefferville QC CAN na FO64ot 250 3605 2240
2018-11-26 0127 358 YKG Kangiqsujuaq QC CAN na FP41ao 1000 3779 2348
2018-11-26 0126 280 QX Gander NL CAN na GN28px 1000 4224 2625
2018-11-26 0124 350 DF Deer Lake NL CAN na GN19ge 1000 4029 2503
2018-11-24 0259 378 UX Hall Beach NU CAN na EP98is 400 4128 2565
2018-11-24 0257 392 ML Charlevoix QC CAN na FN47uo 500 3068 1906
2018-11-24 0252 236 OW Ramsayville (Ottawa) ON CAN na FN25fi 60 2604 1618
2018-11-24 0252 382 YPL Pickle Lake ON CAN na EO41vk 500 2206 1371
2018-11-12 2202 383 LB 'Panck' Liberal KS USA na DM96mx 395 245
2018-11-09 0313 350 NY Enderby BC CAN na DO00mp 500 2353 1462
2018-11-09 0312 329 YHN Hornepayne ON CAN na EN79qf 500 2256 1402
2018-11-04 2102 383 LB 'Panck' Liberal KS USA na DM96mx 395 245
2018-11-04 2055 353 AB 'Tomhi' Abilene TX USA na EM02dh 249 155
2018-11-04 2055 350 RG 'Gally' Oklahoma City OK USA na EM15eh 400 444 276
2018-11-04 2053 341 DNI Denison TX USA na EM13pt 25 487 302
2018-11-04 2053 341 OIN Oberlin KS USA na DM99rt 25 711 442
2018-11-03 0334 380 BBD Brady TX USA na EM01ie 25 361 224
2018-11-03 0333 382 YPL Pickle Lake ON CAN na EO41vk 500 2206 1371
2018-11-03 0332 284 QD The Pas MB CAN na DO93lx 500 2275 1414
2018-10-30 1758 365 FT 'Mufin' Fort Worth TX USA na EM12hv 25 432 268
2018-10-30 0322 212 YGX Gillam MB CAN na EO26pi 2598 1614
2018-10-30 0154 350 DF Deer Lake NL CAN na GN19ge 1000 4029 2503
2018-10-29 0657 515 PN 'Ponca' Ponca City OK USA na EM16kt 25 572 355
2018-10-29 0652 422 EA 'Anoke' Kearney NE USA na EN00lp 25 833 518
2018-10-29 0651 420 PK Olathe KS USA na EM28ps 25 874 543
2018-10-29 0649 420 FQ 'Montz' Fairmont MN USA na EN23tp 25 1303 810
2018-10-29 0649 419 RYS 'Grosse Ile' Detroit / Grosse Ile MI USA na EN82kc 25 1903 1183
2018-10-29 0648 415 CBC West End (Cayman Brac) CYM ca FK09bq 600 2670 1659
2018-10-29 0645 414 GRN Gordon NE USA na DN82vt 1033 642
2018-10-29 0644 414 ATS Artesia NM USA na DM72su 25 244 152
2018-10-29 0644 410 EGQ Emmetsburg IA USA na EN23pc 1238 769
2018-10-29 0644 413 YHD Dryden ON CAN na EN39nu 250 1963 1219
2018-10-29 0643 408 JDM 'Wheatfield' Colby KS USA na DM99lm 25 672 418
2018-10-29 0643 406 YLJ Meadow Lake SK CAN na DO54qd 15 2352 1461
2018-10-29 0641 400 AHQ Wahoo NE USA na EN11qf 977 607
2018-10-29 0641 400 QQ Comox BC CAN na CN79ms 2610 1621
2018-10-29 0641 401 YPO Peawanuck ON CAN na EO74gx 125 2708 1683
2018-10-29 0640 400 CKN Crookston MN USA na EN17qu 25 1655 1028
2018-10-29 0638 400 FN 'Colln' Fort Collins / Loveland CO USA na DN70mi 25 805 500
2018-10-29 0638 397 ZSS Yellowhead (Saskatoon) SK CAN na DO62pf 25 2114 1314
2018-10-29 0637 395 YL Lynn Lake MB CAN na DO96lt 1600 2590 1609
2018-10-29 0637 396 YPH Inukjuak QC CAN na FO08wk 500 3288 2043
2018-10-29 0636 388 MM Fort Mc Murray AB CAN na DO46hp 125 2669 1658
2018-10-29 0635 385 QV Yorkton SK CAN na DO81rf 100 1969 1224
2018-10-29 0634 385 CPZ 'Chaparrosa Ranch' La Pryor TX USA na DL98xv 25 545 339
2018-10-29 0634 385 HO 'Hossy' Hot Springs AR USA na EM34jk 50 813 505
2018-10-29 0632 383 CNP Chappell NE USA na DN81sb 25 840 522
2018-10-29 0632 382 SP 'Huskk' Springfield IL USA na EM59cs 25 1287 800
2018-10-29 0632 382 YPL Pickle Lake ON CAN na EO41vk 500 2206 1371
2018-10-29 0631 380 BBD Brady TX USA na EM01ie 25 361 224
2018-10-29 0631 379 DL 'Pykla' Duluth MN USA na EN36tu 1688 1049
2018-10-29 0629 374 HY 'Nette' Hays KS USA na EM08js 634 394
2018-10-29 0627 368 SX Skookum (Cranbrook) BC CAN na DN29cw 500 2148 1335
2018-10-29 0626 368 ZP Sandspit BC CAN na CO43ce 3213 1996
2018-10-29 0625 368 AN 'Alamo' San Antonio TX USA na EL09ro 400 542 337
2018-10-29 0625 366 YMW Maniwaki QC CAN na FN26ae 500 2610 1621
2018-10-29 0623 365 AA 'Kenie' Fargo MN USA na EN17oa 100 1563 971
2018-10-29 0623 365 HQG Hugoton KS USA na DM97hd 25 406 253
2018-10-29 0622 362 HPC Hope AR USA na EM33er 772 479
2018-10-29 0622 362 RPX Round Up MT USA na DN56rl 25 1544 960
2018-10-29 0622 362 YZS Coral Harbour NU CAN na EP84id 500 3637 2260
2018-10-29 0621 359 GGF Grant NE USA na DN90du 816 507
2018-10-29 0621 360 PN Port-Menier / Ile Anticosti QC CAN na FN79tu 500 3557 2210
2018-10-29 0620 359 SDR Snyder TX USA na DM92mq 25 131 82
2018-10-29 0619 356 PTT Pratt KS USA na EM07pr 25 552 343
2018-10-29 0618 353 PG Portage MB CAN na EN09vu 25 1842 1144
2018-10-29 0617 353 LI 'Lasky' Little Rock AR USA na EM34uq 400 899 559
2018-10-29 0617 352 VM 'Meana', Mena Intermountain Municipal AR USA na EM24xm 25 738 458
2018-10-29 0616 353 IN 'Raize' International Falls MN USA na EN38il 100 1812 1126
2018-10-29 0616 350 NY Enderby BC CAN na DO00mp 500 2353 1462
2018-10-29 0616 351 YKQ Waskaganish QC CAN na FO01pl 500 2737 1700
2018-10-29 0615 349 GW 'Teock' Greenwood MS USA na EM43wo 25 1096 681
2018-10-29 0612 350 LF 'Flufy' Lufkin TX USA na EM21of 719 447
2018-10-29 0610 347 AFK Nebraska City NE USA na EN20bo 954 593
2018-10-29 0609 346 YXL Sioux Lookout ON CAN na EO40bc 1000 2020 1255
2018-10-29 0608 344 YOP Rainbow Lake AB CAN na DO08ik 3056 1899
2018-10-29 0606 344 JA 'Dinns' Jacksonville FL USA na EM90cl 400 1928 1198
2018-10-29 0606 344 POY Powell WY USA na DN54ou 25 1389 863
2018-10-29 0605 344 BKU 'Timber' Baker MT USA na DN76ui 80 1440 895
2018-10-29 0604 341 DNI Denison TX USA na EM13pt 25 487 302
2018-10-29 0604 341 OIN Oberlin KS USA na DM99rt 25 711 442
2018-10-29 0603 340 YY Mont Joli QC CAN na FN58un 500 3243 2015
2018-10-29 0603 341 YYU Kapuskasing ON CAN na EN89rl 500 2386 1483
2018-10-29 0602 338 TT 'Stutt' Stuttgart AR USA na EM44fm 25 966 600
2018-10-29 0602 338 YPX Puvirnituq QC CAN na FP10ib 500 3453 2145
2018-10-29 0601 336 LF La Salle MB CAN na EN19ip 50 1833 1139
2018-10-29 0601 338 RYN 'Ryan' Tucson AZ USA na DM42kd 400 870 540
2018-10-29 0600 335 YLD Chapleau ON CAN na EN87hs 100 2217 1378
2018-10-29 0559 335 BV 'Almnd' Batesville AR USA na EM45cq 25 960 597
2018-10-29 0558 332 XH Medicine Hat AB CAN na DO40oa 50 1972 1225
2018-10-29 0557 332 QT Thunder Bay ON CAN na EN58gi 1000 1949 1211
2018-10-29 0556 332 IC 'Piche' Wichita KS USA na EM17gn 25 606 377
2018-10-29 0555 332 FIS 'Fish Hook' Key West FL USA na EL94cn 400 2193 1363
2018-10-29 0554 329 HMA Hondo TX USA na EL09ji 25 532 330
2018-10-29 0553 329 YEK Arviat NU CAN na EP21xc 500 3119 1938
2018-10-29 0553 329 YHN Hornepayne ON CAN na EN79qf 500 2256 1402
2018-10-29 0553 328 YTL Big Trout Lake ON CAN na EO53bt 1000 2448 1521
2018-10-29 0551 320 YQF Red Deer AB CAN na DO32bd 50 2280 1417
2018-10-29 0550 317 VC La Ronge SK CAN na DO75ic 500 2413 1499
2018-10-29 0547 299 TV Turner Valley AB CAN na DO20ts 200 2167 1346
2018-10-29 0546 293 FBY Fairbury NE USA na EN10ke 50 856 532
2018-10-29 0546 290 QR Regina SK CAN na DO70ri 100 1883 1170
2018-10-29 0542 287 YSF Stony Rapids SK CAN na DO79bg 2877 1788
2018-10-29 0540 284 QD The Pas MB CAN na DO93lx 500 2275 1414
2018-10-29 0539 278 CEP 'Capitan' Ruidoso NM USA na DM73hl 25 317 197
2018-10-29 0539 278 NM Matagami QC CAN na FN19dr 400 2681 1666
2018-10-29 0538 274 YPM Pikangikum ON CAN na EO31at 25 2133 1325
2018-10-29 0537 272 YQA Muskoka ON CAN na FN05ia 400 2320 1441
2018-10-29 0536 260 YAT 'Wapisk' Attawapiskat ON CAN na EO82sw 125 2656 1650
2018-10-29 0535 257 XE Saskatoon SK CAN na DO62oe 25 2111 1312
2018-10-29 0535 258 ZSJ Sandy Lake ON CAN na EO33hb 500 2277 1415
2018-10-29 0533 257 FWC 'Wayne County' Fairfield IL USA na EM58tj 25 1335 830
2018-10-29 0533 255 SW 'Blaki' Stillwater OK USA na EM16kf 50 534 332
2018-10-29 0532 253 GB 'Garno' Marshall MN USA na EN24bm 25 1330 826
2018-10-29 0531 251 YCD Nanaimo BC CAN na CN89bd 500 2506 1557
2018-10-29 0530 245 FS 'Rokky' Sioux Falls SD USA na EN13ol 100 1194 742
2018-10-29 0530 248 UL Montreal QC CAN na FN35bl 1000 2731 1697
2018-10-29 0529 244 TH Thompson MB CAN na EO15bt 1000 2498 1552
2018-10-29 0529 245 YZE Gore Bay ON CAN na EN85qw 400 2143 1332
2018-10-29 0528 242 EL 'Valtr' El Paso TX USA na DM61uu 400 446 277
2018-10-29 0524 233 BR Brandon MB CAN na DN99xv 25 1827 1135
2018-10-29 0524 233 QN Nakina ON CAN na EO60qe 400 2237 1390
2018-10-29 0522 223 YYW Armstrong ON CAN na EO50lh 100 2144 1332
2018-10-29 0521 218 RL Red Lake ON CAN na EO31cb 1000 2059 1280
2018-10-29 0520 212 YGX Gillam MB CAN na EO26pi 2598 1614
2018-10-29 0519 209 IB Atikokan ON CAN na EN48ft 250 1906 1184
2018-10-29 0516 201 IP Mobile AZ USA na DM33tc 25 969 602
2018-10-29 0512 257 FWC 'Wayne County' Fairfield IL USA na EM58tj 25 1335 830
2018-10-28 1509 356 PTT Pratt KS USA na EM07pr 25 552 343
2018-10-28 1508 356 PTT Pratt KS USA na EM07pr 25 552 343
2018-10-28 1508 356 SJ 'Woole' San Angelo TX USA na DM91rg 283 176
2018-10-26 0631 521 TO 'Biloy' Topeka KS USA na EM29dc 25 835 519
2018-10-26 0629 515 PN 'Ponca' Ponca City OK USA na EM16kt 25 572 355
2018-10-26 0627 198 DIW Dixon NC USA na FM14gn 2000 2254 1401
2018-10-26 0627 203 DMZ Dickson TN USA na EM66gd 25 1354 841
2018-10-26 0626 209 ITR 'Kit Carson' Burlington CO USA na DM89uf 25 635 395
2018-10-26 0626 206 SOW Show Low AZ USA na DM44xg 25 750 466
2018-10-26 0624 212 LIU Littlefield TX USA na DM83tw 25 60 37
2018-10-26 0624 216 YFA Fort Albany ON CAN na EO92de 200 2633 1636
2018-10-26 0623 224 MO Moosonee ON CAN na EO91qg 400 2619 1627
2018-10-26 0623 223 YYW Armstrong ON CAN na EO50lh 100 2144 1332
2018-10-26 0622 230 BNZ Abbeville LA USA na EL39wx 25 1009 627
2018-10-26 0620 236 ZRJ Round Lake ON CAN na EO42iw 25 2319 1441
2018-10-26 0619 242 EL 'Valtr' El Paso TX USA na DM61uu 400 446 277
2018-10-26 0619 244 TH Thompson MB CAN na EO15bt 1000 2498 1552
2018-10-26 0618 245 FS 'Rokky' Sioux Falls SD USA na EN13ol 100 1194 742
2018-10-26 0618 245 YZE Gore Bay ON CAN na EN85qw 400 2143 1332
2018-10-26 0617 248 FRT 'Fairmont' Spartanburg SC USA na EM94av 400 1842 1145
2018-10-26 0617 247 YLH Lansdowne House ON CAN na EO62ae 250 2359 1466
2018-10-26 0616 250 FO Flin Flon MB CAN na DO94dq 1600 2353 1462
2018-10-26 0615 253 GB 'Garno' Marshall MN USA na EN24bm 25 1330 826
2018-10-26 0615 257 JYR York NE USA na EN10ev 25 905 562
2018-10-26 0614 258 ZSJ Sandy Lake ON CAN na EO33hb 500 2277 1415
2018-10-26 0613 245 JYL Sylvania GA USA na EM92ep 25 1894 1177
2018-10-26 0613 260 MTH Marathon FL USA na EL94kr 100 2241 1392
2018-10-26 0612 264 HN 'Suybe' Shawnee OK USA na EM15mk 25 505 314
2018-10-26 0612 264 ZPB Sachigo Lake ON CAN na EO33vv 50 2392 1486
2018-10-26 0611 269 UDE Delta MB CAN na EO00ud 50 1872 1163
2018-10-26 0609 278 CEP 'Capitan' Ruidoso NM USA na DM73hl 25 317 197
2018-10-26 0609 278 NM Matagami QC CAN na FN19dr 400 2681 1666
2018-10-26 0608 289 YLQ La Tuque QC CAN na FN37oj 500 2884 1792
2018-10-26 0605 290 QR Regina SK CAN na DO70ri 100 1883 1170
2018-10-26 0604 293 FBY Fairbury NE USA na EN10ke 50 856 532
2018-10-26 0604 293 TOR Torrington WY USA na DN72wb 25 968 602
2018-10-26 0603 300 YIV Island Lake MB CAN na EO23qu 500 2333 1450
2018-10-26 0600 305 RO 'Topan' Roswell NM USA na DM73si 400 233 145
2018-10-26 0600 305 YQ Churchill / Eastern Creek MB CAN na EO38as 500 2869 1783
2018-10-26 0559 314 CVY 'Cavalry' Fort Riley KS USA na EM19oa 25 767 476
2018-10-26 0555 317 VC La Ronge SK CAN na DO75ic 500 2413 1499
2018-10-26 0554 320 YQF Red Deer AB CAN na DO32bd 50 2280 1417
2018-10-26 0553 320 TY Tyler / Indoo TX USA na EM22gj 100 619 385
2018-10-26 0552 326 MA 'Farly' Midland TX USA na DM81ux 400 174 108
2018-10-26 0551 329 PMV Plattsmouth NE USA na EN20bw 25 984 611
2018-10-26 0551 328 YTL Big Trout Lake ON CAN na EO53bt 1000 2448 1521
2018-10-26 0550 329 YHN Hornepayne ON CAN na EN79qf 500 2256 1402
2018-10-26 0546 329 AAA 'Abraham' Lincoln IL USA na EN50hd 25 1338 831
2018-10-26 0546 332 IC 'Piche' Wichita KS USA na EM17gn 25 606 377
2018-10-26 0545 335 IHS 'Ironhorse' Fort Carson CO USA na DM78oq 25 628 390
2018-10-26 0544 332 CZX Crosbyton TX USA na DM93jo 70 44
2018-10-26 0543 335 BV 'Almnd' Batesville AR USA na EM45cq 25 960 597
2018-10-26 0543 335 DR 'Kotti' Del Rio TX USA na DL99mk 464 288
2018-10-26 0542 336 LF La Salle MB CAN na EN19ip 50 1833 1139
2018-10-26 0542 335 YLD Chapleau ON CAN na EN87hs 100 2217 1378
2018-10-26 0541 341 OIN Oberlin KS USA na DM99rt 25 711 442
2018-10-26 0541 338 RYN 'Ryan' Tucson AZ USA na DM42kd 400 870 540
2018-10-26 0541 338 YPX Puvirnituq QC CAN na FP10ib 500 3453 2145
2018-10-26 0540 341 YYU Kapuskasing ON CAN na EN89rl 500 2386 1483
2018-10-26 0538 344 CGQ 'Powell' Corsicana TX USA na EM12sb 539 335
2018-10-26 0537 347 PA Prince Albert SK CAN na DO73cf 25 2212 1374
2018-10-26 0537 346 YXL Sioux Lookout ON CAN na EO40bc 1000 2020 1255
2018-10-26 0536 347 SBX Shelby MT USA na DN48bm 50 1860 1156
2018-10-26 0535 352 VM 'Meana', Mena Intermountain Municipal AR USA na EM24xm 25 738 458
2018-10-26 0535 351 YKQ Waskaganish QC CAN na FO01pl 500 2737 1700
2018-10-26 0534 350 RG 'Gally' Oklahoma City OK USA na EM15eh 400 444 276
2018-10-26 0533 353 LI 'Lasky' Little Rock AR USA na EM34uq 400 899 559
2018-10-26 0533 353 PG Portage MB CAN na EN09vu 25 1842 1144
2018-10-26 0532 355 YWP Webequie ON CAN na EO62hx 100 2454 1525
2018-10-26 0531 359 GGF Grant NE USA na DN90du 816 507
2018-10-26 0530 362 RPX Round Up MT USA na DN56rl 25 1544 960
2018-10-26 0530 359 SDR Snyder TX USA na DM92mq 25 131 82
2018-10-26 0529 362 SB Sudbury ON CAN na EN96mp 400 2294 1425
2018-10-26 0528 362 HPC Hope AR USA na EM33er 772 479
2018-10-26 0526 365 AA 'Kenie' Fargo MN USA na EN17oa 100 1563 971
2018-10-26 0526 365 HQG Hugoton KS USA na DM97hd 25 406 253
2018-10-26 0526 366 YMW Maniwaki QC CAN na FN26ae 500 2610 1621
2018-10-26 0524 368 VX Dafoe SK CAN na DO71ru 80 2049 1273
2018-10-26 0523 371 GW Jarpik Kuujjuarapik QC CAN na FO15cg 500 3055 1898
2018-10-26 0522 375 DS Searcy AR USA na EM45cc 25 950 590
2018-10-26 0520 376 YAG Fort Frances ON CAN na EN38fq 40 1825 1134
2018-10-26 0517 376 ZIN Matthew Town / Great Inagua Island BAH ca FL30dx 400 3106 1930
2018-10-26 0516 379 OW 'Tonna' Owatonna MN USA na EN34kb 25 1398 869
2018-10-26 0513 377 EHA Elkhart KS USA na DM97ba 50 389 242
2018-10-26 0513 380 GC 'Deryk' Gillette WY USA na DN74fg 25 1234 767
2018-10-26 0512 379 RUE Russellville AR USA na EM35kg 25 833 518
2018-10-26 0512 382 SP 'Huskk' Springfield IL USA na EM59cs 25 1287 800
2018-10-26 0510 380 BBD Brady TX USA na EM01ie 25 361 224
2018-10-26 0510 382 YPL Pickle Lake ON CAN na EO41vk 500 2206 1371
2018-10-26 0509 383 CNP Chappell NE USA na DN81sb 25 840 522
2018-10-26 0509 385 HO 'Hossy' Hot Springs AR USA na EM34jk 50 813 505
2018-10-26 0509 385 QV Yorkton SK CAN na DO81rf 100 1969 1224
2018-10-26 0508 388 OK 'Preso' Preston (Okmulgee) OK USA na EM25as 25 603 375
2018-10-26 0507 388 MM Fort Mc Murray AB CAN na DO46hp 125 2669 1658
2018-10-26 0507 392 PNA 'Wenz' Pinedale WY USA na DN52ct 25 1238 769
2018-10-26 0506 389 CSB 'Harry Strunk' Cambridge NE USA na DN90wh 25 772 480
2018-10-26 0506 390 VP Kuujjuaq / Kujack QC CAN na FO58sb 500 3695 2296
2018-10-26 0505 391 GXD Nacogdoches TX USA na EM21pp 25 710 441
2018-10-26 0505 392 ML Charlevoix QC CAN na FN47uo 500 3068 1906
2018-10-26 0502 396 YPH Inukjuak QC CAN na FO08wk 500 3288 2043
2018-10-26 0502 401 YPO Peawanuck ON CAN na EO74gx 125 2708 1683
2018-10-26 0502 397 ZSS Yellowhead (Saskatoon) SK CAN na DO62pf 25 2114 1314
2018-10-26 0500 410 EGQ Emmetsburg IA USA na EN23pc 1238 769
2018-10-26 0500 408 JDM 'Wheatfield' Colby KS USA na DM99lm 25 672 418
2018-10-26 0459 410 JU 'Ashee' West Jefferson NC USA na EM96ik 25 1906 1185
2018-10-26 0457 414 ATS Artesia NM USA na DM72su 25 244 152
2018-10-26 0457 414 SU 'Salix' Sioux City IA USA na EN12uh 40 1096 681
2018-10-26 0456 415 CBC West End (Cayman Brac) CYM ca FK09bq 600 2670 1659
2018-10-26 0456 413 YHD Dryden ON CAN na EN39nu 250 1963 1219
2018-10-26 0455 428 POH Pocahontas IA USA na EN22qr 25 1207 750
2018-10-26 0454 420 FQ 'Montz' Fairmont MN USA na EN23tp 25 1303 810
2018-10-26 0454 426 UV 'Tunng' Oxford MS USA na EM54ej 25 1141 709
2018-10-26 0453 421 VLY 'Melisa' Melissa TX USA na EM13qg 25 496 308
2018-10-11 1930 212 LIU Littlefield TX USA na DM83tw 25 60 37
2018-10-11 1926 251 AM 'Pande' Amarillo TX USA na DM95cd 400 181 113
2018-10-11 1926 255 SW 'Blaki' Stillwater OK USA na EM16kf 50 534 332
2018-10-11 1925 266 PYX Perryton TX USA na DM96pj 25 339 211
2018-10-11 1924 272 LD 'Lubbi' Lubbock TX USA na DM93dp 25 27 17
2018-10-11 1924 275 SWW Sweetwater TX USA na DM92sl 25 182 113
2018-10-11 1923 278 CEP 'Capitan' Ruidoso NM USA na DM73hl 25 317 197
2018-10-11 1922 305 RO 'Topan' Roswell NM USA na DM73si 400 233 145
2018-10-11 1922 320 TY Tyler / Indoo TX USA na EM22gj 100 619 385
2018-10-11 1921 326 MA 'Farly' Midland TX USA na DM81ux 400 174 108
2018-10-11 1918 332 CZX Crosbyton TX USA na DM93jo 70 44
2018-10-11 1915 335 CV 'Hisan' Clovis NM USA na DM84ji 148 92
2018-10-11 1914 341 OIN Oberlin KS USA na DM99rt 25 711 442
2018-10-11 1912 341 DNI Denison TX USA na EM13pt 25 487 302
2018-10-11 1911 344 CGQ 'Powell' Corsicana TX USA na EM12sb 539 335
2018-10-11 1911 350 RG 'Gally' Oklahoma City OK USA na EM15eh 400 444 276
2018-10-11 1910 353 AB 'Tomhi' Abilene TX USA na EM02dh 249 155
2018-10-11 1910 356 SJ 'Woole' San Angelo TX USA na DM91rg 283 176
2018-10-11 1909 365 HQG Hugoton KS USA na DM97hd 25 406 253
2018-10-11 1909 359 SDR Snyder TX USA na DM92mq 25 131 82
2018-10-11 1907 421 VLY 'Melisa' Melissa TX USA na EM13qg 25 496 308
2018-10-11 1906 414 ATS Artesia NM USA na DM72su 25 244 152
2018-10-11 1905 380 BBD Brady TX USA na EM01ie 25 361 224
2018-10-11 1905 395 ULS Ulysses KS USA na DM97ho 457 284
2018-04-23 0343 338 RYN 'Ryan' Tucson AZ USA na DM42kd 400 870 540
2018-04-23 0342 421 VLY 'Melisa' Melissa TX USA na EM13qg 25 496 308
2018-04-23 0340 412 BWR 'Brewster Co' Alpine TX USA na DM80ek 25 377 234
2018-04-23 0340 417 IY 'Chukk' Charles City IA USA na EN33pd 25 1338 831
2018-04-23 0339 386 SYF St. Francis KS USA na DM99cr 25 690 429
2018-04-23 0338 344 BKU 'Timber' Baker MT USA na DN76ui 80 1440 895
2018-04-23 0338 341 OIN Oberlin KS USA na DM99rt 25 711 442
2018-04-23 0335 248 WG Winnipeg MB CAN na EN19hv 250 1859 1155
2018-03-15 0459 278 CEP 'Capitan' Ruidoso NM USA na DM73hl 25 317 197
2018-03-15 0459 305 RO 'Topan' Roswell NM USA na DM73si 400 233 145
2018-03-15 0458 320 TY Tyler / Indoo TX USA na EM22gj 100 619 385
2018-03-15 0457 332 FIS 'Fish Hook' Key West FL USA na EL94cn 400 2193 1363
2018-03-15 0457 338 RYN 'Ryan' Tucson AZ USA na DM42kd 400 870 540
2018-03-15 0439 341 OIN Oberlin KS USA na DM99rt 25 711 442
2018-03-15 0438 344 CGQ 'Powell' Corsicana TX USA na EM12sb 539 335
2018-03-15 0437 350 OKT Yoakum TX USA na EL19kh 655 407
2018-03-15 0437 350 RG 'Gally' Oklahoma City OK USA na EM15eh 400 444 276
2018-03-15 0436 389 CSB 'Harry Strunk' Cambridge NE USA na DN90wh 25 772 480
2018-03-15 0434 396 CRS Corsicana TX USA na EM12ta 25 548 340
2018-03-15 0434 395 ULS Ulysses KS USA na DM97ho 457 284
2018-03-15 0429 408 JDM 'Wheatfield' Colby KS USA na DM99lm 25 672 418
2018-03-15 0425 418 CW 'Mossy' Lake Charles LA USA na EM30jh 25 899 559
2018-03-15 0424 415 CBC West End (Cayman Brac) CYM ca FK09bq 600 2670 1659
2018-02-26 0622 392 FMZ 'Beklof' Fairmont NE USA na EN10fo 25 879 546
2018-02-19 0533 413 YHD Dryden ON CAN na EN39nu 250 1963 1219
2018-02-19 0528 420 FQ 'Montz' Fairmont MN USA na EN23tp 25 1303 810
2018-02-19 0526 421 VLY 'Melisa' Melissa TX USA na EM13qg 25 496 308
2018-02-19 0525 414 ATS Artesia NM USA na DM72su 25 244 152
2018-02-19 0525 414 MSD Mansfield LA USA na EM32cb 25 780 485
2018-02-19 0523 418 CW 'Mossy' Lake Charles LA USA na EM30jh 25 899 559
2018-02-19 0521 415 CBC West End (Cayman Brac) CYM ca FK09bq 600 2670 1659
2018-02-19 0516 400 AI 'Addmo' Ardmore OK USA na EM14mf 25 468 291
2018-02-19 0515 400 FN 'Colln' Fort Collins / Loveland CO USA na DN70mi 25 805 500
2018-02-19 0515 388 MM Fort Mc Murray AB CAN na DO46hp 125 2669 1658
2018-02-19 0513 344 YC Calgary AB CAN na DO31bb 2176 1352
2018-02-19 0509 368 SX Skookum (Cranbrook) BC CAN na DN29cw 500 2148 1335
2018-02-19 0506 286 EKS 'Big Sky' Ennis MT USA na DN45eg 1545 960
2018-02-19 0504 284 QD The Pas MB CAN na DO93lx 500 2275 1414
2018-02-19 0500 351 AE 'Dudle' Albuquerque NM USA na DM65pf 475 295
2018-02-19 0500 353 LI 'Lasky' Little Rock AR USA na EM34uq 400 899 559
2018-02-19 0459 347 SBX Shelby MT USA na DN48bm 50 1860 1156
2018-02-19 0451 359 YQZ Quesnel BC CAN na CO82sx 500 2706 1682
2018-02-19 0449 359 BO 'Ustik' Boise ID USA na DN13uo 400 1672 1039
2018-02-19 0440 404 MOG Montague CA USA na CN81sr 25 2016 1252
2018-02-17 0528 347 PA Prince Albert SK CAN na DO73cf 25 2212 1374
2018-02-17 0501 344 YC Calgary AB CAN na DO31bb 2176 1352
2018-02-17 0433 218 RL Red Lake ON CAN na EO31cb 1000 2059 1280
2018-02-17 0419 332 FIS 'Fish Hook' Key West FL USA na EL94cn 400 2193 1363
2018-02-12 1822 359 SDR Snyder TX USA na DM92mq 25 131 82
2018-02-12 0411 362 SB Sudbury ON CAN na EN96mp 400 2294 1425
2018-02-12 0410 365 FT 'Mufin' Fort Worth TX USA na EM12hv 25 432 268
2018-02-12 0410 362 OWP 'William Pogue' Sand Springs OK USA na EM16we 609 378
2018-02-12 0409 365 AA 'Kenie' Fargo MN USA na EN17oa 100 1563 971
2018-02-12 0409 365 HQG Hugoton KS USA na DM97hd 25 406 253
2018-02-12 0408 366 YMW Maniwaki QC CAN na FN26ae 500 2610 1621
2018-02-12 0407 366 EOK Keokuk IA USA na EN40gl 25 1210 752
2018-02-12 0405 368 VX Dafoe SK CAN na DO71ru 80 2049 1273
2018-02-12 0404 368 ROQ Ruston LA USA na EM32qo 25 875 544
2018-02-12 0402 371 MD 'Bunan' Bemidji MN USA na EN27nk 1657 1030
2018-02-12 0401 368 SOY Sioux Center IA USA na EN13vd 1181 734
2018-02-12 0400 368 SOO UNID XUN xx
2018-02-12 0359 370 YBV Berens River MB CAN na EO12li 25 2130 1324
2018-02-12 0358 371 GW Jarpik Kuujjuarapik QC CAN na FO15cg 500 3055 1898
2018-02-12 0358 371 SOA Sonora TX USA na DM90qn 25 352 219
2018-02-12 0356 374 HY 'Nette' Hays KS USA na EM08js 634 394
2018-02-12 0352 375 SPH Springhill LA USA na EM32hw 25 801 497
2018-02-12 0352 376 YAG Fort Frances ON CAN na EN38fq 40 1825 1134
2018-02-12 0351 379 OW 'Tonna' Owatonna MN USA na EN34kb 25 1398 869
2018-02-12 0350 377 EHA Elkhart KS USA na DM97ba 50 389 242
2018-02-12 0348 380 GC 'Deryk' Gillette WY USA na DN74fg 25 1234 767
2018-02-12 0347 379 DL 'Pykla' Duluth MN USA na EN36tu 1688 1049
2018-02-12 0347 379 RUE Russellville AR USA na EM35kg 25 833 518
2018-02-12 0346 380 BBD Brady TX USA na EM01ie 25 361 224
2018-02-12 0346 380 OEL Oakley KS USA na DM99oc 25 629 391
2018-02-12 0345 382 GRN Guerrero Negro (Baja California) MEX ca DL28xa 1305 811
2018-02-12 0344 382 YPL Pickle Lake ON CAN na EO41vk 500 2206 1371
2018-02-12 0343 385 JD 'Gooey' Belleville IL USA na EM58dl 1231 765
2018-02-12 0339 383 CNP Chappell NE USA na DN81sb 25 840 522
2018-02-12 0339 385 QV Yorkton SK CAN na DO81rf 100 1969 1224
2018-02-12 0337 387 CAV Clarion IA USA na EN32cr 25 1247 775
2018-02-12 0337 385 CPZ 'Chaparrosa Ranch' La Pryor TX USA na DL98xv 25 545 339
2018-02-12 0336 388 MM Fort Mc Murray AB CAN na DO46hp 125 2669 1658
2018-02-12 0334 351 YKQ Waskaganish QC CAN na FO01pl 500 2737 1700
2018-02-12 0333 350 RG 'Gally' Oklahoma City OK USA na EM15eh 400 444 276
2018-02-12 0332 352 VM 'Meana', Mena Intermountain Municipal AR USA na EM24xm 25 738 458
2018-02-12 0325 350 NY Enderby BC CAN na DO00mp 500 2353 1462
2018-02-12 0322 390 JT Stephenville NL CAN na GN08on 450 3921 2437
2018-02-12 0321 391 GXD Nacogdoches TX USA na EM21pp 25 710 441
2018-02-12 0321 392 ML Charlevoix QC CAN na FN47uo 500 3068 1906
2018-02-12 0320 392 XVG Longville MN USA na EN26vx 25 1632 1014
2018-02-12 0312 392 FMZ 'Beklof' Fairmont NE USA na EN10fo 25 879 546
2018-02-12 0311 395 YL Lynn Lake MB CAN na DO96lt 1600 2590 1609
2018-02-12 0310 396 YPH Inukjuak QC CAN na FO08wk 500 3288 2043
2018-02-12 0309 400 AI 'Addmo' Ardmore OK USA na EM14mf 25 468 291
2018-02-12 0309 400 FN 'Colln' Fort Collins / Loveland CO USA na DN70mi 25 805 500
2018-02-12 0308 399 ZHD 'Thunder' Dryden ON CAN na EN39qt 25 1966 1222
2018-02-12 0307 317 VC La Ronge SK CAN na DO75ic 500 2413 1499
2018-02-12 0301 414 YZK Harper Ranch (Kamloops) BC CAN na CO90wq 2413 1499
2018-02-11 2309 251 AM 'Pande' Amarillo TX USA na DM95cd 400 181 113
2018-02-11 2309 335 CV 'Hisan' Clovis NM USA na DM84ji 148 92
2018-02-11 2309 272 LD 'Lubbi' Lubbock TX USA na DM93dp 25 27 17
2018-02-11 2309 326 MA 'Farly' Midland TX USA na DM81ux 400 174 108
2018-02-11 2309 305 RO 'Topan' Roswell NM USA na DM73si 400 233 145
2018-02-11 0536 390 JT Stephenville NL CAN na GN08on 450 3921 2437
2018-02-11 0534 392 BAJ 'Batten' Sterling CO USA na DN80jm 786 488
2018-02-11 0534 389 CSB 'Harry Strunk' Cambridge NE USA na DN90wh 25 772 480
2018-02-11 0530 391 GXD Nacogdoches TX USA na EM21pp 25 710 441
2018-02-11 0529 392 ML Charlevoix QC CAN na FN47uo 500 3068 1906
2018-02-11 0524 394 SP 'Snore' Spencer IA USA na EN23if 1225 761
2018-02-11 0520 392 FMZ 'Beklof' Fairmont NE USA na EN10fo 25 879 546
2018-02-11 0515 396 CRS Corsicana TX USA na EM12ta 25 548 340
2018-02-11 0513 395 ULS Ulysses KS USA na DM97ho 457 284
2018-02-11 0512 399 ZHD 'Thunder' Dryden ON CAN na EN39qt 25 1966 1222
2018-02-11 0508 400 AI 'Addmo' Ardmore OK USA na EM14mf 25 468 291
2018-02-11 0508 402 CV Carlz Carlsbad NM USA na DM72tg 265 165
2018-02-11 0505 400 FN 'Colln' Fort Collins / Loveland CO USA na DN70mi 25 805 500
2018-02-11 0501 404 HU 'Saltt' Hutchinson KS USA na EM18ac 25 624 388
2018-02-11 0501 404 MOG Montague CA USA na CN81sr 25 2016 1252
2018-02-11 0458 403 AZC Colorado City AZ USA na DM36lx 40 1076 669
2018-02-11 0444 407 HRU Herington KS USA na EM18oq 25 738 459
2018-02-11 0443 407 CO 'Petey' Colorado Springs CO USA na DM78pq 25 625 388
2018-02-11 0443 408 JDM 'Wheatfield' Colby KS USA na DM99lm 25 672 418
2018-02-11 0442 411 SDA Shenandoah IA USA na EN20hs 25 994 618
2018-02-11 0440 414 ATS Artesia NM USA na DM72su 25 244 152
2018-02-11 0437 414 SU 'Salix' Sioux City IA USA na EN12uh 40 1096 681
2018-02-11 0436 414 MSD Mansfield LA USA na EM32cb 25 780 485
2018-02-11 0435 416 LB 'Panbe' North Platte NE USA na DN91rb 50 848 527
2018-02-11 0434 415 CBC West End (Cayman Brac) CYM ca FK09bq 600 2670 1659
2018-02-11 0431 418 CW 'Mossy' Lake Charles LA USA na EM30jh 25 899 559
2018-02-11 0430 417 HHG Huntington IN USA na EN70gu 25 1669 1037
2018-02-11 0421 417 IY 'Chukk' Charles City IA USA na EN33pd 25 1338 831
2018-02-11 0420 419 RYS 'Grosse Ile' Detroit / Grosse Ile MI USA na EN82kc 25 1903 1183
2018-02-11 0419 420 PK Olathe KS USA na EM28ps 25 874 543
2018-02-11 0416 420 FQ 'Montz' Fairmont MN USA na EN23tp 25 1303 810
2018-02-11 0416 421 VLY 'Melisa' Melissa TX USA na EM13qg 25 496 308
2018-02-11 0415 426 UV 'Tunng' Oxford MS USA na EM54ej 25 1141 709
2018-02-11 0354 428 POH Pocahontas IA USA na EN22qr 25 1207 750
2018-02-11 0352 512 HMY 'Muldrow' Lexington OK USA na EM15ja 25 467 290
2018-02-11 0347 515 PN 'Ponca' Ponca City OK USA na EM16kt 25 572 355
2018-02-06 0345 340 YY Mont Joli QC CAN na FN58un 500 3243 2015
2018-02-06 0337 216 CLB Wilmington / Carolina Beach NC USA na FM14ac 2213 1375
2018-02-06 0336 248 WG Winnipeg MB CAN na EN19hv 250 1859 1155
2018-02-06 0333 284 QD The Pas MB CAN na DO93lx 500 2275 1414
2018-02-06 0323 317 VC La Ronge SK CAN na DO75ic 500 2413 1499
2018-02-06 0313 341 YYU Kapuskasing ON CAN na EN89rl 500 2386 1483
2018-02-06 0312 329 YHN Hornepayne ON CAN na EN79qf 500 2256 1402
2018-02-06 0310 353 PG Portage MB CAN na EN09vu 25 1842 1144
2018-02-06 0310 351 YKQ Waskaganish QC CAN na FO01pl 500 2737 1700
2018-02-06 0307 346 YXL Sioux Lookout ON CAN na EO40bc 1000 2020 1255
2018-02-06 0306 275 GUY Guymon OK USA na DM96fq 25 354 220
2010-10-25 1000 359 HHH Devine TX USA na EL09md 25 564 350
2010-10-25 0135 368 AN 'Alamo' San Antonio TX USA na EL09ro 400 542 337
2010-10-25 0134 368 PPA Pampa TX USA na DM95mo 25 249 155
2010-10-24 1025 356 ZXE Barnes (Saskatoon) SK CAN na DO62rd 39 2103 1307
2010-10-24 0956 353 DI 'Noson' Dickinson ND USA na DN86pq 25 1465 910
2010-10-24 0954 351 AE 'Dudle' Albuquerque NM USA na DM65pf 475 295
2010-10-24 0953 353 ICL Clarinda IA USA na EN20lr 25 1008 626
2010-10-24 0947 353 DWL 'Willow' Gothenburg NE USA na DN90xu 25 833 517
2010-10-24 0908 355 YWP Webequie ON CAN na EO62hx 100 2454 1525
2010-10-24 0906 356 SJ 'Woole' San Angelo TX USA na DM91rg 283 176
2010-10-24 0831 359 YQZ Quesnel BC CAN na CO82sx 500 2706 1682
2010-10-24 0829 365 HQG Hugoton KS USA na DM97hd 25 406 253
2010-10-24 0812 353 LLD Lanai HI HWA oc BL10ms 2000 5557 3453
2010-10-24 0812 353 CY 'Horse' Cheyenne WY USA na DN71pd 882 548
2010-10-24 0808 356 FWX 'Hazer' New Roads LA USA na EM40gp 1039 645
2010-10-24 0802 365 FT 'Mufin' Fort Worth TX USA na EM12hv 25 432 268
2010-10-24 0801 350 NY Enderby BC CAN na DO00mp 500 2353 1462
2010-10-24 0801 351 YKQ Waskaganish QC CAN na FO01pl 500 2737 1700
2010-10-24 0801 365 AA 'Kenie' Fargo MN USA na EN17oa 100 1563 971
2010-10-24 0753 359 BO 'Ustik' Boise ID USA na DN13uo 400 1672 1039
2010-10-24 0746 356 LLU 'Spring River' Lamar MO USA na EM27ul 821 510
2010-10-24 0735 358 TNY 'Kelso' Fayetteville TN USA na EM65rd 25 1425 886
2010-10-24 0717 356 ODX Ord NE USA na EN01mo 25 937 582
2010-10-24 0406 356 PTT Pratt KS USA na EM07pr 25 552 343
2010-10-24 0350 353 LI 'Lasky' Little Rock AR USA na EM34uq 400 899 559
2010-10-24 0346 362 CYW Clay Center KS USA na EM19kj 25 783 486
2010-10-24 0330 359 SDR Snyder TX USA na DM92mq 25 131 82
2010-10-24 0327 356 GMZ 'Grindstone Mountain' Bowie TX USA na EM13co 386 240
2010-10-24 0302 350 RG 'Gally' Oklahoma City OK USA na EM15eh 400 444 276
2010-10-05 1419 244 TH Thompson MB CAN na EO15bt 1000 2498 1552
2010-10-05 1153 248 PQF Mesquite TX USA na EM12rt 25 510 317
2010-10-05 1117 283 IML Imperial NE USA na DN90em 25 779 484
2010-10-05 1100 385 QV Yorkton SK CAN na DO81rf 100 1969 1224
2010-10-05 1057 269 UDE Delta MB CAN na EO00ud 50 1872 1163
2010-10-05 1057 343 YZH Slave Lake AB CAN na DO25oh 282 2618 1627
2010-10-05 1056 347 PA Prince Albert SK CAN na DO73cf 25 2212 1374
2010-10-05 1055 317 VC La Ronge SK CAN na DO75ic 500 2413 1499
2010-10-05 1055 332 XH Medicine Hat AB CAN na DO40oa 50 1972 1225
2010-10-05 1054 274 YPM Pikangikum ON CAN na EO31at 25 2133 1325
2010-10-05 1052 351 YKQ Waskaganish QC CAN na FO01pl 500 2737 1700
2010-10-05 1052 356 ZF Yellowknife NT CAN na DP22sj 1000 3329 2068
2010-10-05 1051 350 NY Enderby BC CAN na DO00mp 500 2353 1462
2010-10-05 1051 356 ZXE Barnes (Saskatoon) SK CAN na DO62rd 39 2103 1307
2010-10-05 1046 251 YCD Nanaimo BC CAN na CN89bd 500 2506 1557
2010-10-05 1040 326 YQK Kenora ON CAN na EN29st 200 1913 1189
2010-10-05 1027 278 NM Matagami QC CAN na FN19dr 400 2681 1666
2010-10-05 1021 328 YTL Big Trout Lake ON CAN na EO53bt 1000 2448 1521
2010-10-05 1020 275 AV St Andrews (Winnipeg) MB CAN na EO10lb 80 1882 1170
2010-10-05 1019 362 SB Sudbury ON CAN na EN96mp 400 2294 1425
2010-10-05 1015 257 XE Saskatoon SK CAN na DO62oe 25 2111 1312
2010-10-05 0618 512 HMY 'Muldrow' Lexington OK USA na EM15ja 25 467 290
2010-10-05 0613 421 EF 'Fluet' Mc Kinney TX USA na EM13qg 496 308
2010-10-05 0612 420 FQ 'Montz' Fairmont MN USA na EN23tp 25 1303 810
2010-10-05 0609 417 IY 'Chukk' Charles City IA USA na EN33pd 25 1338 831
2010-10-05 0604 414 ATS Artesia NM USA na DM72su 25 244 152
2010-10-05 0603 414.5 RPB 'Republican' Belleville KS USA na EM19et 799 496
2010-10-05 0602 408 JDM 'Wheatfield' Colby KS USA na DM99lm 25 672 418
2010-10-05 0600 377 BUB Burwell NE USA na EN01ks 950 590
2010-10-05 0558 380 BBD Brady TX USA na EM01ie 25 361 224
2010-10-05 0557 388 JUG 'Jecca' Seagoville TX USA na EM12rq 25 513 319
2010-10-05 0556 386 SYF St. Francis KS USA na DM99cr 25 690 429
2010-10-05 0556 388 AM 'Picny' Tampa FL USA na EL87ru 400 1957 1216
2010-10-05 0549 201 GV 'Major' Greenville TX USA na EM13xd 25 551 342
2010-10-05 0535 216 CLB Wilmington / Carolina Beach NC USA na FM14ac 2213 1375
2010-10-05 0528 223 YYW Armstrong ON CAN na EO50lh 100 2144 1332
2010-10-05 0523 227 MPR Mc Pherson KS USA na EM18di 25 659 410
2010-10-05 0516 239 LNC Lancaster TX USA na EM12pn 25 501 311
2010-10-05 0513 242 EL 'Valtr' El Paso TX USA na DM61uu 400 446 277
2010-10-05 0504 250 FO Flin Flon MB CAN na DO94dq 1600 2353 1462
2010-10-05 0431 255 SW 'Blaki' Stillwater OK USA na EM16kf 50 534 332
2010-10-05 0406 258 ZSJ Sandy Lake ON CAN na EO33hb 500 2277 1415
2010-10-05 0329 266 SAA Saratoga WY USA na DN61ok 50 978 607
2010-10-05 0321 260 AP 'Casse' Denver CO USA na DM79nk 100 707 440
2010-10-05 0319 266 LLN Levelland TX USA na DM83tn 39 24
2010-10-05 0258 305 RO 'Topan' Roswell NM USA na DM73si 400 233 145
2010-10-04 0516 305 YQ Churchill / Eastern Creek MB CAN na EO38as 500 2869 1783
2010-10-04 0449 332 CZX Crosbyton TX USA na DM93jo 70 44
2010-10-04 0446 329 YHN Hornepayne ON CAN na EN79qf 500 2256 1402
2010-10-04 0434 281 DEQ De Queen AR USA na EM24tb 25 703 437
2010-10-04 0432 275 GUY Guymon OK USA na DM96fq 25 354 220
2010-10-04 0426 281 DMO Sedalia MO USA na EM38jq 25 973 604
2010-10-04 0425 281 UVA Uvalde TX USA na EL09de 25 527 327
2010-10-04 0425 281 EWK Newton KS USA na EM18ib 25 657 408
2010-10-04 0417 260 AVZ 'Travis' Terrell TX USA na EM12vs 25 542 337
2010-10-04 0414 248 WG Winnipeg MB CAN na EN19hv 250 1859 1155
2010-10-02 0340 428 SYW 'Cash' Greenville TX USA na EM12xx 25 553 344
2010-10-02 0328 400 FN 'Colln' Fort Collins / Loveland CO USA na DN70mi 25 805 500
2010-10-02 0324 395 YL Lynn Lake MB CAN na DO96lt 1600 2590 1609
2010-10-02 0322 396 YPH Inukjuak QC CAN na FO08wk 500 3288 2043
2010-10-02 0303 395 ULS Ulysses KS USA na DM97ho 457 284
2010-10-01 2247 278 CEP 'Capitan' Ruidoso NM USA na DM73hl 25 317 197
2010-10-01 2242 368 PPA Pampa TX USA na DM95mo 25 249 155
2010-10-01 2242 370 OUN Norman OK USA na EM15gf 454 282
2010-10-01 0316 335 YLD Chapleau ON CAN na EN87hs 100 2217 1378
2010-10-01 0200 218 RL Red Lake ON CAN na EO31cb 1000 2059 1280
2010-09-30 1022 284 QD The Pas MB CAN na DO93lx 500 2275 1414
2010-09-30 0919 245 FS 'Rokky' Sioux Falls SD USA na EN13ol 100 1194 742
2010-09-30 0308 356 ODX Ord NE USA na EN01mo 25 937 582
2010-09-30 0308 359 SDR Snyder TX USA na DM92mq 25 131 82
2010-09-30 0305 350 RG 'Gally' Oklahoma City OK USA na EM15eh 400 444 276
2010-09-30 0304 344 GNC 'Gaines County' Seminole TX USA na DM82qq 25 112 69
2010-09-30 0302 341 YYU Kapuskasing ON CAN na EN89rl 500 2386 1483
2010-09-30 0236 346 YXL Sioux Lookout ON CAN na EO40bc 1000 2020 1255
2010-09-30 0233 272 LD 'Lubbi' Lubbock TX USA na DM93dp 25 27 17
2010-09-30 0231 251 AM 'Pande' Amarillo TX USA na DM95cd 400 181 113
2010-09-30 0228 219 LB 'Pollo' Lubbock TX USA na DM93cr 28 17
2010-09-30 0225 212 LIU Littlefield TX USA na DM83tw 25 60 37
2010-09-07 1620 365 HQG Hugoton KS USA na DM97hd 25 406 253
2010-09-01 1627 356 GMZ 'Grindstone Mountain' Bowie TX USA na EM13co 386 240
2010-09-01 1011 239 UBC Ballinger TX USA na EM01aq 25 277 172
2010-09-01 0703 198 DIW Dixon NC USA na FM14gn 2000 2254 1401
2010-09-01 0657 341 SG 'Doman' Santa Fe NM USA na DM65wn 444 276
2010-09-01 0654 353 DI 'Noson' Dickinson ND USA na DN86pq 25 1465 910
2010-09-01 0648 321 #882 Lompoc CA USA na CM94rt 1713 1064
2010-09-01 0647 319 #876 Castle Butte (Flagstaff) AZ USA na DM45cf 922 573
2010-09-01 0646 316 #848 Killarney Lake (Spokane) WA USA na DN17gm 2026 1259
2010-09-01 0646 318 #823 Summerfield TX USA na DM84rt 153 95
2010-09-01 0644 317 #858 Hartsville TN USA na EM66wj 1476 917
2010-09-01 0642 313 #874 Garland (Billings) MT USA na DN65ax 1476 917
2010-09-01 0641 312 #798 Austin NV USA na DM19pj 1469 913
2010-09-01 0639 305 #795 Bakersfield CA USA na DM05kd 1584 984
2010-09-01 0639 307 #872 Sugar City (Pueblo) CO USA na DM78tg 571 355
2010-09-01 0636 301 #822 Huber (Macon) GA USA na EM82fq 1715 1066
2010-09-01 0635 300 #871 Appleton WA USA na CN95ps 2096 1302
2010-09-01 0633 299 #866 Sallisaw OK USA na EM25oi 688 427
2010-09-01 0632 298 #875 Essex CA USA na DM24js 1226 762
2010-09-01 0631 295 #812 Eglin AFB (Auxilliary) FL USA na EM60rp 1485 923
2010-09-01 0631 297 #792 Bobo MS USA na EM44pc 1041 647
2010-09-01 0627 293 #814 English Turn LA USA na EL59av 1203 748
2010-09-01 0626 291 #845 Clines Corners (Albuquerque) NM USA na DM64sw 443 275
2010-09-01 0623 289 #765 Maple Hill (Topeka) KS USA na EM19xb 812 505
2010-09-01 0610 245 AVQ Marana AZ USA na DM42jj 872 542
2010-09-01 0558 280 GZV 'Brazos River' Graford TX USA na EM02tw 25 339 211
2010-08-31 1127 392 PNA 'Wenz' Pinedale WY USA na DN52ct 25 1238 769
2010-08-31 1126 394 ENZ Nogales AZ USA na DM41nk 100 867 539
2010-08-31 1125 385 DXB De Ridder LA USA na EM30hs 863 537
2010-08-31 1116 391 RKP Rockport TX USA na EL18lc 25 763 474
2010-08-31 1115 389 LCG Wayne NE USA na EN12mf 1062 660
2010-08-31 1110 434 SLB Storm Lake IA USA na EN22jo 25 1169 726
2010-08-31 1108 385 CPZ 'Chaparrosa Ranch' La Pryor TX USA na DL98xv 25 545 339
2010-08-31 1108 393 BZ 'Fossi' Clinton OK USA na EM05jk 25 330 205
2010-08-31 1107 375 DW 'Owaso' Tulsa OK USA na EM26bh 20 635 395
2010-08-31 1104 397 BWK Bunkie LA USA na EM30vu 964 599
2010-08-31 1101 392 ML 'Sabar' Monroe LA USA na EM32wk 925 574
2010-08-31 1101 402 CV Carlz Carlsbad NM USA na DM72tg 265 165
2010-08-31 1058 400 QQ Comox BC CAN na CN79ms 2610 1621
2010-08-31 1054 385 WL Williams Lake BC CAN na CO92ad 500 2617 1626
2010-08-31 1039 387 SPP San Andres Island / Santander SAP ca EK92do 3101 1927
2010-08-31 1039 388 JW 'Pigeon' Jumping Pound Creek AB CAN na DO21qb 15 2204 1369
2010-08-31 1037 418 CW 'Mossy' Lake Charles LA USA na EM30jh 25 899 559
2010-08-31 1025 379 LRR 'Allen Parish' Oakdale LA USA na EM30pp 928 576
2010-08-31 1023 385 HO 'Hossy' Hot Springs AR USA na EM34jk 50 813 505
2010-08-31 1022 383 PGR Paragould AR USA na EM46rb 25 1079 671
2010-08-31 0300 407 AKL Haskell TX USA na EM03de 25 212 132
2010-08-31 0259 410 DAO 'Dragoo' Fort Huachuca (Sierra Vista) AZ USA na DM41to 25 817 507
2010-08-31 0253 415 CBC West End (Cayman Brac) CYM ca FK09bq 600 2670 1659
2010-08-31 0241 391 DDP San Juan / Dorado / Luiz Munoz Marin Intl PR PTR ca FK68tl 2000 3903 2425
2010-08-31 0240 391 GXD Nacogdoches TX USA na EM21pp